createdAt,value
2018-05-09T00:00:36.508Z,20.90
2018-05-09T00:03:04.010Z,20.90
2018-05-09T00:05:31.484Z,20.80
2018-05-09T00:07:58.952Z,20.80
2018-05-09T00:10:26.424Z,20.70
2018-05-09T00:12:53.903Z,20.80
2018-05-09T00:15:21.452Z,20.80
2018-05-09T00:17:48.905Z,20.80
2018-05-09T00:20:16.376Z,20.80
2018-05-09T00:22:43.828Z,20.80
2018-05-09T00:25:11.312Z,20.80
2018-05-09T00:27:38.847Z,20.90
2018-05-09T00:30:06.304Z,20.90
2018-05-09T00:32:34.085Z,20.90
2018-05-09T00:35:01.556Z,20.90
2018-05-09T00:37:29.023Z,20.90
2018-05-09T00:39:56.499Z,20.90
2018-05-09T00:42:23.948Z,20.90
2018-05-09T00:44:51.543Z,20.90
2018-05-09T00:47:19.783Z,20.80
2018-05-09T00:49:47.232Z,20.80
2018-05-09T00:52:14.712Z,20.70
2018-05-09T00:54:42.225Z,20.60
2018-05-09T00:57:09.685Z,20.50
2018-05-09T00:59:37.185Z,20.50
2018-05-09T01:02:04.643Z,20.50
2018-05-09T01:04:32.102Z,20.50
2018-05-09T01:06:59.580Z,20.60
2018-05-09T01:09:27.124Z,20.50
2018-05-09T01:11:54.532Z,20.60
2018-05-09T01:14:22.031Z,20.50
2018-05-09T01:16:49.515Z,20.50
2018-05-09T01:19:17.748Z,20.50
2018-05-09T01:21:45.220Z,20.50
2018-05-09T01:24:12.688Z,20.50
2018-05-09T01:26:40.148Z,20.60
2018-05-09T01:29:07.629Z,20.60
2018-05-09T01:31:35.892Z,20.50
2018-05-09T01:34:04.122Z,20.50
2018-05-09T01:36:31.643Z,20.50
2018-05-09T01:38:59.895Z,20.50
2018-05-09T01:41:27.345Z,20.40
2018-05-09T01:43:54.823Z,20.50
2018-05-09T01:46:23.114Z,20.40
2018-05-09T01:48:51.360Z,20.40
2018-05-09T01:51:18.845Z,20.30
2018-05-09T01:53:47.061Z,20.30
2018-05-09T01:56:14.521Z,20.30
2018-05-09T01:58:42.020Z,20.20
2018-05-09T02:01:09.474Z,20.10
2018-05-09T02:03:36.935Z,20.10
2018-05-09T02:06:04.447Z,20.00
2018-05-09T02:08:31.916Z,20.00
2018-05-09T02:10:59.373Z,19.90
2018-05-09T02:13:26.832Z,19.90
2018-05-09T02:15:54.308Z,19.80
2018-05-09T02:18:21.772Z,19.80
2018-05-09T02:20:49.257Z,19.70
2018-05-09T02:23:17.465Z,19.60
2018-05-09T02:25:44.984Z,19.60
2018-05-09T02:28:12.461Z,19.60
2018-05-09T02:30:39.912Z,19.60
2018-05-09T02:33:07.404Z,19.50
2018-05-09T02:35:34.936Z,19.50
2018-05-09T02:38:03.176Z,19.40
2018-05-09T02:40:30.649Z,19.40
2018-05-09T02:42:58.887Z,19.40
2018-05-09T02:45:26.364Z,19.30
2018-05-09T02:47:53.840Z,19.30
2018-05-09T02:50:22.080Z,19.30
2018-05-09T02:52:49.558Z,19.30
2018-05-09T02:55:17.010Z,19.20
2018-05-09T02:57:44.482Z,19.20
2018-05-09T03:00:11.939Z,19.10
2018-05-09T03:02:39.425Z,19.10
2018-05-09T03:05:06.974Z,19.10
2018-05-09T03:07:35.221Z,19.00
2018-05-09T03:10:02.676Z,19.00
2018-05-09T03:12:30.155Z,19.00
2018-05-09T03:14:57.623Z,18.90
2018-05-09T03:17:25.077Z,18.90
2018-05-09T03:19:52.560Z,18.80
2018-05-09T03:22:20.784Z,18.80
2018-05-09T03:24:48.255Z,18.70
2018-05-09T03:27:15.716Z,18.70
2018-05-09T03:29:43.616Z,18.70
2018-05-09T03:32:11.038Z,18.70
2018-05-09T03:34:38.567Z,18.60
2018-05-09T03:37:06.038Z,18.60
2018-05-09T03:39:33.517Z,18.60
2018-05-09T03:42:00.964Z,18.50
2018-05-09T03:44:28.457Z,18.50
2018-05-09T03:46:55.907Z,18.50
2018-05-09T03:49:23.359Z,18.50
2018-05-09T03:51:50.832Z,18.50
2018-05-09T03:54:19.053Z,18.50
2018-05-09T03:56:46.532Z,18.50
2018-05-09T03:59:13.984Z,18.50
2018-05-09T04:01:53.317Z,18.50
2018-05-09T04:04:32.626Z,18.50
2018-05-09T04:07:11.801Z,18.50
2018-05-09T04:09:50.405Z,18.40
2018-05-09T04:12:17.927Z,18.40
2018-05-09T04:14:45.358Z,18.40
2018-05-09T04:17:12.827Z,18.50
2018-05-09T04:19:41.064Z,18.50
2018-05-09T04:22:08.673Z,18.40
2018-05-09T04:24:36.140Z,18.50
2018-05-09T04:27:03.632Z,18.50
2018-05-09T04:29:31.082Z,18.50
2018-05-09T04:31:58.534Z,18.50
2018-05-09T04:34:26.017Z,18.50
2018-05-09T04:36:53.465Z,18.50
2018-05-09T04:39:20.944Z,18.50
2018-05-09T04:41:48.610Z,18.50
2018-05-09T04:44:16.083Z,18.60
2018-05-09T04:46:43.565Z,18.60
2018-05-09T04:49:11.284Z,18.60
2018-05-09T04:51:38.685Z,18.60
2018-05-09T04:54:06.143Z,18.60
2018-05-09T04:56:34.424Z,18.70
2018-05-09T04:59:01.890Z,18.70
2018-05-09T05:01:29.364Z,18.70
2018-05-09T05:03:56.845Z,18.70
2018-05-09T05:06:24.344Z,18.80
2018-05-09T05:08:51.821Z,18.80
2018-05-09T05:11:19.272Z,18.80
2018-05-09T05:13:46.760Z,18.90
2018-05-09T05:16:14.220Z,18.90
2018-05-09T05:18:41.720Z,18.90
2018-05-09T05:21:09.176Z,19.00
2018-05-09T05:23:36.625Z,19.00
2018-05-09T05:26:04.121Z,19.10
2018-05-09T05:28:31.619Z,19.10
2018-05-09T05:30:59.904Z,19.20
2018-05-09T05:33:27.874Z,19.20
2018-05-09T05:35:55.367Z,19.20
2018-05-09T05:38:23.274Z,19.30
2018-05-09T05:40:50.744Z,19.20
2018-05-09T05:43:18.236Z,19.10
2018-05-09T05:45:45.692Z,19.00
2018-05-09T05:48:13.288Z,19.10
2018-05-09T05:50:41.534Z,19.20
2018-05-09T05:53:09.197Z,19.10
2018-05-09T05:55:36.682Z,19.20
2018-05-09T05:58:04.930Z,19.30
2018-05-09T06:00:32.384Z,19.30
2018-05-09T06:02:59.971Z,19.40
2018-05-09T06:05:27.458Z,19.50
2018-05-09T06:07:55.047Z,19.50
2018-05-09T06:10:22.486Z,19.50
2018-05-09T06:12:49.947Z,19.60
2018-05-09T06:15:17.432Z,19.70
2018-05-09T06:17:44.888Z,19.80
2018-05-09T06:20:12.373Z,19.90
2018-05-09T06:22:39.830Z,20.00
2018-05-09T06:25:07.310Z,20.10
2018-05-09T06:27:35.532Z,20.30
2018-05-09T06:30:03.030Z,20.30
2018-05-09T06:32:31.302Z,20.50
2018-05-09T06:34:58.768Z,20.40
2018-05-09T06:37:26.238Z,20.60
2018-05-09T06:39:53.709Z,20.60
2018-05-09T06:42:21.162Z,20.70
2018-05-09T06:44:48.641Z,20.70
2018-05-09T06:47:16.216Z,20.70
2018-05-09T06:49:43.687Z,20.80
2018-05-09T06:52:11.131Z,20.90
2018-05-09T06:54:38.612Z,21.00
2018-05-09T06:57:06.075Z,21.10
2018-05-09T06:59:33.560Z,21.10
2018-05-09T07:02:01.017Z,21.10
2018-05-09T07:04:28.471Z,21.10
2018-05-09T07:06:55.944Z,21.20
2018-05-09T07:09:23.436Z,21.30
2018-05-09T07:11:50.924Z,21.40
2018-05-09T07:14:18.383Z,21.40
2018-05-09T07:16:45.896Z,21.50
2018-05-09T07:19:13.348Z,21.50
2018-05-09T07:21:40.813Z,21.60
2018-05-09T07:24:08.295Z,21.70
2018-05-09T07:26:35.879Z,21.70
2018-05-09T07:29:04.167Z,21.80
2018-05-09T07:31:31.622Z,21.70
2018-05-09T07:33:59.076Z,21.80
2018-05-09T07:36:26.572Z,21.80
2018-05-09T07:38:54.039Z,21.90
2018-05-09T07:41:21.489Z,21.90
2018-05-09T07:43:48.981Z,21.90
2018-05-09T07:46:16.441Z,22.00
2018-05-09T07:48:43.920Z,22.10
2018-05-09T07:51:11.379Z,22.10
2018-05-09T07:53:38.855Z,22.20
2018-05-09T07:56:06.328Z,22.30
2018-05-09T07:58:34.009Z,22.30
2018-05-09T08:01:01.480Z,22.40
2018-05-09T08:03:28.937Z,22.40
2018-05-09T08:05:56.538Z,22.50
2018-05-09T08:08:23.943Z,22.60
2018-05-09T08:10:51.405Z,22.60
2018-05-09T08:13:18.885Z,22.60
2018-05-09T08:15:46.397Z,22.70
2018-05-09T08:18:13.828Z,22.70
2018-05-09T08:20:41.296Z,22.90
2018-05-09T08:23:08.772Z,22.90
2018-05-09T08:25:36.236Z,23.00
2018-05-09T08:28:03.726Z,23.10
2018-05-09T08:30:31.181Z,23.30
2018-05-09T08:32:58.664Z,23.30
2018-05-09T08:35:26.128Z,23.40
2018-05-09T08:37:53.706Z,23.50
2018-05-09T08:40:21.105Z,23.60
2018-05-09T08:42:48.603Z,23.70
2018-05-09T08:45:16.076Z,23.70
2018-05-09T08:47:43.568Z,23.80
2018-05-09T08:50:11.073Z,23.90
2018-05-09T08:52:38.552Z,24.00
2018-05-09T08:55:06.008Z,24.10
2018-05-09T08:57:33.495Z,24.20
2018-05-09T09:00:01.740Z,24.40
2018-05-09T09:02:29.204Z,24.40
2018-05-09T09:04:56.765Z,24.50
2018-05-09T09:07:24.241Z,24.50
2018-05-09T09:09:52.471Z,24.60
2018-05-09T09:12:19.953Z,24.60
2018-05-09T09:14:47.410Z,24.70
2018-05-09T09:17:14.885Z,24.80
2018-05-09T09:19:42.345Z,24.90
2018-05-09T09:22:09.829Z,25.00
2018-05-09T09:24:37.287Z,25.10
2018-05-09T09:27:04.768Z,25.20
2018-05-09T09:29:32.248Z,25.20
2018-05-09T09:31:59.710Z,25.30
2018-05-09T09:34:27.193Z,25.40
2018-05-09T09:36:55.421Z,25.50
2018-05-09T09:39:22.889Z,25.50
2018-05-09T09:41:50.367Z,25.60
2018-05-09T09:44:17.838Z,25.70
2018-05-09T09:46:45.317Z,25.70
2018-05-09T09:49:13.544Z,26.00
2018-05-09T09:51:41.034Z,25.90
2018-05-09T09:54:09.276Z,26.10
2018-05-09T09:56:36.745Z,26.10
2018-05-09T09:59:04.241Z,26.20
2018-05-09T10:01:32.465Z,26.40
2018-05-09T10:03:59.908Z,26.30
2018-05-09T10:06:27.433Z,26.40
2018-05-09T10:08:55.675Z,26.60
2018-05-09T10:11:23.164Z,26.50
2018-05-09T10:13:51.389Z,26.60
2018-05-09T10:16:18.872Z,26.60
2018-05-09T10:18:46.323Z,26.70
2018-05-09T10:21:13.804Z,26.80
2018-05-09T10:23:41.281Z,26.90
2018-05-09T10:26:09.536Z,27.10
2018-05-09T10:28:37.007Z,27.00
2018-05-09T10:31:05.236Z,27.30
2018-05-09T10:33:32.720Z,27.20
2018-05-09T10:36:00.205Z,27.30
2018-05-09T10:38:28.452Z,27.50
2018-05-09T10:40:55.947Z,27.40
2018-05-09T10:43:24.164Z,27.60
2018-05-09T10:45:51.617Z,27.60
2018-05-09T10:48:19.261Z,27.70
2018-05-09T10:50:46.751Z,27.70
2018-05-09T10:53:14.183Z,27.70
2018-05-09T10:55:41.749Z,27.80
2018-05-09T10:58:09.213Z,27.90
2018-05-09T11:00:36.702Z,27.90
2018-05-09T11:03:04.183Z,28.00
2018-05-09T11:05:31.755Z,28.10
2018-05-09T11:07:59.995Z,28.20
2018-05-09T11:10:27.472Z,28.20
2018-05-09T11:12:54.944Z,28.30
2018-05-09T11:15:23.172Z,28.40
2018-05-09T11:17:50.725Z,28.40
2018-05-09T11:20:18.201Z,28.50
2018-05-09T11:22:45.658Z,28.50
2018-05-09T11:25:13.149Z,28.50
2018-05-09T11:27:40.604Z,28.60
2018-05-09T11:30:08.089Z,28.70
2018-05-09T11:32:35.540Z,28.70
2018-05-09T11:35:03.116Z,28.80
2018-05-09T11:37:30.630Z,28.80
2018-05-09T11:39:58.077Z,28.90
2018-05-09T11:42:25.557Z,29.00
2018-05-09T11:44:53.023Z,29.00
2018-05-09T11:47:21.253Z,29.10
2018-05-09T11:49:48.819Z,29.10
2018-05-09T11:52:16.269Z,29.20
2018-05-09T11:54:43.684Z,29.20
2018-05-09T11:57:11.169Z,29.30
2018-05-09T11:59:38.629Z,29.40
2018-05-09T12:02:06.269Z,29.40
2018-05-09T12:04:33.731Z,29.40
2018-05-09T12:07:01.178Z,29.60
2018-05-09T12:09:28.640Z,29.70
2018-05-09T12:11:56.116Z,29.60
2018-05-09T12:14:23.609Z,29.60
2018-05-09T12:16:51.837Z,29.70
2018-05-09T12:19:19.324Z,29.70
2018-05-09T12:21:46.780Z,29.80
2018-05-09T12:24:14.335Z,29.90
2018-05-09T12:26:41.809Z,29.90
2018-05-09T12:29:09.270Z,30.00
2018-05-09T12:31:36.752Z,30.00
2018-05-09T12:34:04.206Z,30.10
2018-05-09T12:36:31.725Z,30.10
2018-05-09T12:38:59.148Z,30.20
2018-05-09T12:41:27.385Z,30.30
2018-05-09T12:43:54.836Z,30.30
2018-05-09T12:46:22.322Z,30.30
2018-05-09T12:48:49.969Z,30.30
2018-05-09T12:51:17.436Z,30.40
2018-05-09T12:53:44.893Z,30.50
2018-05-09T12:56:12.392Z,30.60
2018-05-09T12:58:39.858Z,30.70
2018-05-09T13:01:07.311Z,30.80
2018-05-09T13:03:35.013Z,30.90
2018-05-09T13:06:02.488Z,31.00
2018-05-09T13:08:29.957Z,31.10
2018-05-09T13:10:57.462Z,31.20
2018-05-09T13:13:24.949Z,31.30
2018-05-09T13:15:52.419Z,31.30
2018-05-09T13:18:19.880Z,31.40
2018-05-09T13:20:47.368Z,31.40
2018-05-09T13:23:15.595Z,31.70
2018-05-09T13:25:43.164Z,31.60
2018-05-09T13:28:10.595Z,31.70
2018-05-09T13:30:38.085Z,31.70
2018-05-09T13:33:05.552Z,31.80
2018-05-09T13:35:33.036Z,31.90
2018-05-09T13:38:00.493Z,31.90
2018-05-09T13:40:28.733Z,34.20
2018-05-09T13:42:56.204Z,34.20
2018-05-09T13:45:23.681Z,36.40
2018-05-09T13:47:51.220Z,38.40
2018-05-09T13:50:18.685Z,39.70
2018-05-09T13:52:46.199Z,39.90
2018-05-09T13:55:13.647Z,40.20
2018-05-09T13:57:41.115Z,40.80
2018-05-09T14:00:08.584Z,39.90
2018-05-09T14:02:36.045Z,40.80
2018-05-09T14:05:03.521Z,42.40
2018-05-09T14:07:30.977Z,44.00
2018-05-09T14:09:58.514Z,45.40
2018-05-09T14:12:26.000Z,46.70
2018-05-09T14:14:53.480Z,46.80
2018-05-09T14:17:21.701Z,43.70
2018-05-09T14:19:49.168Z,43.60
2018-05-09T14:22:16.653Z,43.60
2018-05-09T14:24:44.135Z,45.30
2018-05-09T14:27:12.412Z,48.30
2018-05-09T14:29:40.653Z,50.10
2018-05-09T14:32:08.201Z,50.00
2018-05-09T14:34:35.626Z,51.40
2018-05-09T14:37:03.081Z,52.50
2018-05-09T14:39:30.568Z,53.00
2018-05-09T14:41:58.029Z,53.40
2018-05-09T14:44:25.537Z,53.70
2018-05-09T14:46:53.001Z,53.80
2018-05-09T14:49:21.239Z,54.20
2018-05-09T14:51:48.693Z,54.10
2018-05-09T14:54:16.140Z,54.20
2018-05-09T14:56:43.607Z,54.20
2018-05-09T14:59:11.057Z,54.30
2018-05-09T15:01:38.537Z,54.50
2018-05-09T15:04:06.025Z,54.70
2018-05-09T15:06:33.484Z,54.80
2018-05-09T15:09:00.942Z,55.10
2018-05-09T15:11:28.418Z,54.80
2018-05-09T15:13:55.915Z,54.60
2018-05-09T15:16:23.416Z,54.60
2018-05-09T15:18:51.661Z,55.00
2018-05-09T15:21:19.136Z,55.00
2018-05-09T15:23:46.609Z,55.20
2018-05-09T15:26:14.077Z,55.10
2018-05-09T15:28:41.548Z,55.20
2018-05-09T15:31:09.031Z,55.20
2018-05-09T15:33:36.487Z,54.80
2018-05-09T15:36:03.968Z,53.90
2018-05-09T15:38:31.442Z,52.60
2018-05-09T15:40:59.003Z,51.30
2018-05-09T15:43:26.521Z,50.40
2018-05-09T15:45:54.045Z,49.10
2018-05-09T15:48:22.263Z,46.20
2018-05-09T15:50:49.724Z,46.20
2018-05-09T15:53:17.969Z,43.80
2018-05-09T15:55:45.418Z,43.70
2018-05-09T15:58:12.883Z,42.50
2018-05-09T16:00:40.430Z,41.50
2018-05-09T16:03:07.841Z,40.60
2018-05-09T16:05:35.288Z,39.80
2018-05-09T16:08:02.744Z,39.20
2018-05-09T16:10:30.253Z,38.30
2018-05-09T16:12:57.702Z,37.80
2018-05-09T16:15:25.187Z,37.30
2018-05-09T16:17:53.415Z,36.60
2018-05-09T16:20:20.903Z,36.70
2018-05-09T16:22:49.148Z,35.90
2018-05-09T16:25:17.041Z,35.90
2018-05-09T16:27:45.512Z,35.20
2018-05-09T16:30:12.964Z,35.20
2018-05-09T16:32:40.455Z,35.00
2018-05-09T16:35:08.674Z,34.70
2018-05-09T16:37:36.313Z,34.60
2018-05-09T16:40:03.924Z,34.50
2018-05-09T16:42:31.395Z,34.50
2018-05-09T16:44:58.868Z,34.40
2018-05-09T16:47:27.378Z,34.30
2018-05-09T16:49:55.855Z,34.30
2018-05-09T16:52:23.445Z,34.30
2018-05-09T16:54:50.952Z,34.20
2018-05-09T16:57:19.243Z,34.20
2018-05-09T16:59:46.688Z,34.20
2018-05-09T17:02:14.177Z,34.20
2018-05-09T17:04:41.640Z,34.10
2018-05-09T17:07:09.101Z,34.10
2018-05-09T17:09:36.600Z,34.00
2018-05-09T17:12:04.060Z,33.70
2018-05-09T17:14:31.544Z,33.50
2018-05-09T17:16:59.816Z,33.10
2018-05-09T17:19:28.073Z,32.80
2018-05-09T17:22:13.758Z,32.50
2018-05-09T17:24:41.238Z,32.50
2018-05-09T17:27:08.725Z,32.20
2018-05-09T17:29:36.203Z,32.00
2018-05-09T17:32:03.659Z,31.90
2018-05-09T17:34:31.360Z,31.80
2018-05-09T17:36:58.824Z,31.80
2018-05-09T17:39:26.279Z,31.80
2018-05-09T17:41:53.770Z,32.00
2018-05-09T17:44:21.257Z,31.90
2018-05-09T17:46:48.754Z,31.60
2018-05-09T17:49:16.219Z,31.50
2018-05-09T17:51:43.709Z,31.40
2018-05-09T17:54:11.168Z,31.30
2018-05-09T17:56:38.731Z,31.20
2018-05-09T17:59:06.208Z,31.10
2018-05-09T18:01:33.724Z,31.00
2018-05-09T18:04:01.219Z,30.80
2018-05-09T18:06:28.743Z,30.70
2018-05-09T18:08:56.998Z,30.40
2018-05-09T18:11:24.456Z,30.40
2018-05-09T18:13:51.940Z,30.30
2018-05-09T18:16:20.188Z,29.90
2018-05-09T18:18:47.665Z,29.90
2018-05-09T18:21:15.896Z,29.40
2018-05-09T18:23:43.451Z,29.40
2018-05-09T18:26:11.126Z,29.20
2018-05-09T18:28:38.647Z,29.10
2018-05-09T18:31:06.130Z,29.00
2018-05-09T18:33:33.688Z,28.90
2018-05-09T18:36:01.089Z,28.70
2018-05-09T18:38:28.585Z,28.50
2018-05-09T18:40:56.059Z,28.40
2018-05-09T18:43:23.543Z,28.40
2018-05-09T18:45:51.023Z,28.30
2018-05-09T18:48:18.510Z,28.30
2018-05-09T18:50:45.994Z,28.20
2018-05-09T18:53:13.487Z,28.10
2018-05-09T18:55:41.053Z,27.90
2018-05-09T18:58:08.581Z,27.80
2018-05-09T19:00:36.280Z,27.80
2018-05-09T19:03:03.858Z,27.60
2018-05-09T19:05:31.275Z,27.40
2018-05-09T19:07:58.791Z,27.30
2018-05-09T19:10:26.690Z,27.20
2018-05-09T19:12:54.183Z,27.20
2018-05-09T19:15:21.819Z,27.10
2018-05-09T19:17:49.492Z,27.00
2018-05-09T19:20:17.239Z,27.00
2018-05-09T19:22:44.836Z,26.90
2018-05-09T19:25:12.564Z,26.90
2018-05-09T19:27:40.150Z,26.80
2018-05-09T19:30:07.852Z,26.80
2018-05-09T19:32:35.491Z,26.70
2018-05-09T19:35:03.117Z,26.60
2018-05-09T19:37:30.758Z,26.50
2018-05-09T19:39:58.265Z,26.50
2018-05-09T19:42:26.001Z,26.50
2018-05-09T19:44:53.636Z,26.40
2018-05-09T19:47:21.296Z,26.40
2018-05-09T19:49:49.801Z,26.30
2018-05-09T19:52:17.513Z,26.30
2018-05-09T19:54:45.106Z,26.20
2018-05-09T19:57:12.579Z,26.20
2018-05-09T19:59:40.065Z,26.20
2018-05-09T20:02:07.675Z,26.10
2018-05-09T20:04:35.171Z,26.10
2018-05-09T20:07:02.643Z,26.10
2018-05-09T20:09:30.185Z,26.10
2018-05-09T20:11:57.820Z,25.90
2018-05-09T20:14:26.059Z,25.70
2018-05-09T20:16:53.527Z,25.70
2018-05-09T20:19:22.004Z,25.60
2018-05-09T20:21:50.292Z,25.50
2018-05-09T20:24:18.580Z,25.40
2018-05-09T20:26:46.111Z,25.40
2018-05-09T20:29:13.649Z,25.20
2018-05-09T20:31:57.291Z,25.10
2018-05-09T20:34:24.974Z,25.00
2018-05-09T20:36:52.574Z,25.00
2018-05-09T20:39:20.136Z,25.00
2018-05-09T20:41:47.805Z,24.90
2018-05-09T20:44:15.418Z,24.90
2018-05-09T20:46:43.266Z,24.90
2018-05-09T20:49:11.985Z,24.90
2018-05-09T20:51:51.156Z,24.80
2018-05-09T20:54:18.752Z,24.80
2018-05-09T20:56:46.398Z,24.80
2018-05-09T20:59:14.026Z,24.80
2018-05-09T21:01:47.131Z,24.90
2018-05-09T21:04:14.782Z,24.80
2018-05-09T21:06:42.345Z,24.70
2018-05-09T21:09:10.053Z,24.60
2018-05-09T21:11:37.566Z,24.50
2018-05-09T21:14:05.108Z,24.40
2018-05-09T21:16:32.589Z,24.30
2018-05-09T21:19:00.103Z,24.20
2018-05-09T21:21:28.423Z,24.00
2018-05-09T21:23:56.665Z,23.90
2018-05-09T21:26:24.123Z,23.90
2018-05-09T21:28:51.594Z,23.80
2018-05-09T21:31:19.856Z,23.50
2018-05-09T21:33:47.315Z,23.50
2018-05-09T21:36:14.777Z,23.40
2018-05-09T21:38:42.286Z,23.20
2018-05-09T21:41:09.772Z,23.10
2018-05-09T21:43:37.247Z,23.10
2018-05-09T21:46:04.700Z,22.90
2018-05-09T21:48:33.110Z,22.90
2018-05-09T21:51:00.610Z,22.90
2018-05-09T21:53:28.089Z,22.80
2018-05-09T21:55:55.638Z,22.60
2018-05-09T21:58:23.067Z,22.50
2018-05-09T22:00:50.533Z,22.40
2018-05-09T22:03:18.024Z,22.40
2018-05-09T22:05:45.509Z,22.30
2018-05-09T22:08:12.979Z,22.30
2018-05-09T22:10:41.408Z,22.20
2018-05-09T22:13:08.873Z,22.20
2018-05-09T22:15:36.409Z,22.10
2018-05-09T22:18:03.878Z,22.00
2018-05-09T22:20:31.401Z,21.90
2018-05-09T22:22:58.837Z,21.90
2018-05-09T22:25:26.343Z,21.80
2018-05-09T22:27:53.799Z,21.70
2018-05-09T22:30:21.284Z,21.60
2018-05-09T22:32:48.923Z,21.60
2018-05-09T22:35:16.390Z,21.60
2018-05-09T22:37:43.884Z,21.60
2018-05-09T22:40:11.339Z,21.40
2018-05-09T22:42:38.820Z,21.30
2018-05-09T22:45:07.095Z,21.30
2018-05-09T22:47:35.352Z,21.20
2018-05-09T22:50:02.813Z,21.20
2018-05-09T22:52:30.292Z,21.20
2018-05-09T22:54:58.543Z,21.00
2018-05-09T22:57:26.012Z,21.00
2018-05-09T22:59:53.472Z,21.00
2018-05-09T23:02:20.924Z,21.00
2018-05-09T23:04:48.411Z,20.90
2018-05-09T23:07:16.686Z,20.90
2018-05-09T23:09:44.151Z,20.80
2018-05-09T23:12:12.395Z,20.80
2018-05-09T23:14:39.892Z,20.70
2018-05-09T23:17:07.381Z,20.70
2018-05-09T23:19:34.839Z,20.70
2018-05-09T23:22:02.376Z,20.70
2018-05-09T23:24:29.820Z,20.60
2018-05-09T23:26:57.292Z,20.60
2018-05-09T23:29:24.756Z,20.60
2018-05-09T23:31:52.241Z,20.60
2018-05-09T23:34:19.707Z,20.50
2018-05-09T23:36:47.220Z,20.50
2018-05-09T23:39:14.696Z,20.40
2018-05-09T23:41:42.175Z,20.40
2018-05-09T23:44:09.710Z,20.40
2018-05-09T23:46:37.179Z,20.30
2018-05-09T23:49:04.641Z,20.40
2018-05-09T23:51:32.123Z,20.30
2018-05-09T23:53:59.588Z,20.30
2018-05-09T23:56:27.073Z,20.20
2018-05-09T23:58:55.294Z,20.20
